sensor_id;sensor_type;location;lat;lon;timestamp;temperature;humidity
51853;DHT22;37894;53.172;6.598;2023-04-03T00:00:43;3.10;99.90
51853;DHT22;37894;53.172;6.598;2023-04-03T00:03:08;2.90;99.90
51853;DHT22;37894;53.172;6.598;2023-04-03T00:05:34;2.90;99.90
51853;DHT22;37894;53.172;6.598;2023-04-03T00:08:00;2.80;99.90
51853;DHT22;37894;53.172;6.598;2023-04-03T00:10:28;2.60;99.90
51853;DHT22;37894;53.172;6.598;2023-04-03T00:15:19;2.70;99.90
51853;DHT22;37894;53.172;6.598;2023-04-03T00:17:45;3.20;99.90
51853;DHT22;37894;53.172;6.598;2023-04-03T00:20:11;3.80;99.90
51853;DHT22;37894;53.172;6.598;2023-04-03T00:22:36;2.70;99.90
51853;DHT22;37894;53.172;6.598;2023-04-03T00:25:03;2.80;99.90
51853;DHT22;37894;53.172;6.598;2023-04-03T00:27:29;2.60;99.90
51853;DHT22;37894;53.172;6.598;2023-04-03T00:34:47;3.20;99.90
51853;DHT22;37894;53.172;6.598;2023-04-03T00:42:05;2.60;99.90
51853;DHT22;37894;53.172;6.598;2023-04-03T00:47:00;2.30;99.90
51853;DHT22;37894;53.172;6.598;2023-04-03T00:49:27;2.40;99.90
51853;DHT22;37894;53.172;6.598;2023-04-03T00:51:54;2.40;99.90
51853;DHT22;37894;53.172;6.598;2023-04-03T00:54:21;2.10;99.90
51853;DHT22;37894;53.172;6.598;2023-04-03T00:56:47;2.10;99.90
51853;DHT22;37894;53.172;6.598;2023-04-03T00:59:20;1.20;99.90
51853;DHT22;37894;53.172;6.598;2023-04-03T01:01:48;2.00;99.90
51853;DHT22;37894;53.172;6.598;2023-04-03T01:04:29;2.20;99.90
51853;DHT22;37894;53.172;6.598;2023-04-03T01:06:59;2.00;99.90
51853;DHT22;37894;53.172;6.598;2023-04-03T01:09:26;2.00;99.90
51853;DHT22;37894;53.172;6.598;2023-04-03T01:11:53;1.10;99.90
51853;DHT22;37894;53.172;6.598;2023-04-03T01:14:19;1.40;99.90
51853;DHT22;37894;53.172;6.598;2023-04-03T01:16:54;1.90;99.90
51853;DHT22;37894;53.172;6.598;2023-04-03T01:19:21;1.00;99.90
51853;DHT22;37894;53.172;6.598;2023-04-03T01:22:05;1.80;99.90
51853;DHT22;37894;53.172;6.598;2023-04-03T01:24:37;1.70;99.90
51853;DHT22;37894;53.172;6.598;2023-04-03T01:27:06;2.10;99.90
51853;DHT22;37894;53.172;6.598;2023-04-03T01:29:32;1.60;99.90
51853;DHT22;37894;53.172;6.598;2023-04-03T01:32:00;1.60;99.90
51853;DHT22;37894;53.172;6.598;2023-04-03T01:34:28;1.70;99.90
51853;DHT22;37894;53.172;6.598;2023-04-03T01:36:54;1.80;99.90
51853;DHT22;37894;53.172;6.598;2023-04-03T01:41:46;2.00;99.90
51853;DHT22;37894;53.172;6.598;2023-04-03T01:44:12;2.30;99.90
51853;DHT22;37894;53.172;6.598;2023-04-03T01:46:38;1.20;99.90
51853;DHT22;37894;53.172;6.598;2023-04-03T01:49:04;1.60;99.90
51853;DHT22;37894;53.172;6.598;2023-04-03T01:53:56;1.70;99.90
51853;DHT22;37894;53.172;6.598;2023-04-03T01:58:48;1.50;99.90
51853;DHT22;37894;53.172;6.598;2023-04-03T02:08:32;1.90;99.90
51853;DHT22;37894;53.172;6.598;2023-04-03T02:15:50;1.40;99.90
51853;DHT22;37894;53.172;6.598;2023-04-03T02:18:16;1.10;99.90
51853;DHT22;37894;53.172;6.598;2023-04-03T02:23:09;1.20;99.90
51853;DHT22;37894;53.172;6.598;2023-04-03T02:25:35;1.30;99.90
51853;DHT22;37894;53.172;6.598;2023-04-03T02:28:00;2.20;99.90
51853;DHT22;37894;53.172;6.598;2023-04-03T02:30:26;0.90;99.90
51853;DHT22;37894;53.172;6.598;2023-04-03T02:35:18;0.40;99.90
51853;DHT22;37894;53.172;6.598;2023-04-03T02:37:44;1.30;99.90
51853;DHT22;37894;53.172;6.598;2023-04-03T02:40:10;1.30;99.90
51853;DHT22;37894;53.172;6.598;2023-04-03T02:42:37;1.20;99.90
51853;DHT22;37894;53.172;6.598;2023-04-03T02:45:03;2.30;99.90
51853;DHT22;37894;53.172;6.598;2023-04-03T02:47:29;1.30;99.90
51853;DHT22;37894;53.172;6.598;2023-04-03T02:52:20;1.20;99.90
51853;DHT22;37894;53.172;6.598;2023-04-03T02:54:46;1.00;99.90
51853;DHT22;37894;53.172;6.598;2023-04-03T02:57:12;2.00;99.90
51853;DHT22;37894;53.172;6.598;2023-04-03T02:59:38;0.40;99.90
51853;DHT22;37894;53.172;6.598;2023-04-03T03:02:08;1.00;99.90
51853;DHT22;37894;53.172;6.598;2023-04-03T03:04:34;1.20;99.90
51853;DHT22;37894;53.172;6.598;2023-04-03T03:07:00;0.80;99.90
51853;DHT22;37894;53.172;6.598;2023-04-03T03:09:25;0.90;99.90
51853;DHT22;37894;53.172;6.598;2023-04-03T03:11:52;0.80;99.90
51853;DHT22;37894;53.172;6.598;2023-04-03T03:14:17;0.80;99.90
51853;DHT22;37894;53.172;6.598;2023-04-03T03:21:36;1.70;99.90
51853;DHT22;37894;53.172;6.598;2023-04-03T03:24:02;0.80;99.90
51853;DHT22;37894;53.172;6.598;2023-04-03T03:26:28;0.80;99.90
51853;DHT22;37894;53.172;6.598;2023-04-03T03:33:46;0.70;99.90
51853;DHT22;37894;53.172;6.598;2023-04-03T03:38:38;-0.20;99.90
51853;DHT22;37894;53.172;6.598;2023-04-03T03:45:56;0.30;99.90
51853;DHT22;37894;53.172;6.598;2023-04-03T03:50:48;0.10;99.90
51853;DHT22;37894;53.172;6.598;2023-04-03T03:53:13;0.50;99.90
51853;DHT22;37894;53.172;6.598;2023-04-03T03:55:40;-0.30;99.90
51853;DHT22;37894;53.172;6.598;2023-04-03T03:58:05;0.30;99.90
51853;DHT22;37894;53.172;6.598;2023-04-03T04:00:32;0.40;99.90
51853;DHT22;37894;53.172;6.598;2023-04-03T04:07:50;0.30;99.90
51853;DHT22;37894;53.172;6.598;2023-04-03T04:15:09;-0.70;99.90
51853;DHT22;37894;53.172;6.598;2023-04-03T04:20:02;0.20;99.90
51853;DHT22;37894;53.172;6.598;2023-04-03T04:22:28;0.20;99.90
51853;DHT22;37894;53.172;6.598;2023-04-03T04:32:12;0.40;99.90
51853;DHT22;37894;53.172;6.598;2023-04-03T04:34:37;1.10;99.90
51853;DHT22;37894;53.172;6.598;2023-04-03T04:37:03;0.10;99.90
51853;DHT22;37894;53.172;6.598;2023-04-03T04:49:13;0.10;99.90
51853;DHT22;37894;53.172;6.598;2023-04-03T04:54:05;-0.20;99.90
51853;DHT22;37894;53.172;6.598;2023-04-03T04:56:31;0.10;99.90
51853;DHT22;37894;53.172;6.598;2023-04-03T05:01:22;0.10;99.90
51853;DHT22;37894;53.172;6.598;2023-04-03T05:03:48;-0.10;99.90
51853;DHT22;37894;53.172;6.598;2023-04-03T05:11:06;0.80;99.90
51853;DHT22;37894;53.172;6.598;2023-04-03T05:13:32;-0.30;99.90
51853;DHT22;37894;53.172;6.598;2023-04-03T05:20:51;-0.80;99.90
51853;DHT22;37894;53.172;6.598;2023-04-03T05:25:43;0.00;99.90
51853;DHT22;37894;53.172;6.598;2023-04-03T05:30:36;-0.80;99.90
51853;DHT22;37894;53.172;6.598;2023-04-03T05:33:02;-0.30;99.90
51853;DHT22;37894;53.172;6.598;2023-04-03T05:45:12;0.00;99.90
51853;DHT22;37894;53.172;6.598;2023-04-03T05:47:38;-0.20;99.90
51853;DHT22;37894;53.172;6.598;2023-04-03T05:50:04;-0.30;99.90
51853;DHT22;37894;53.172;6.598;2023-04-03T05:52:34;1.00;99.90
51853;DHT22;37894;53.172;6.598;2023-04-03T05:55:01;-0.20;99.90
51853;DHT22;37894;53.172;6.598;2023-04-03T05:59:52;-0.20;99.90
51853;DHT22;37894;53.172;6.598;2023-04-03T06:02:21;0.10;99.90
51853;DHT22;37894;53.172;6.598;2023-04-03T06:07:23;0.10;99.90
51853;DHT22;37894;53.172;6.598;2023-04-03T06:09:52;0.80;99.90
51853;DHT22;37894;53.172;6.598;2023-04-03T06:12:19;-0.20;99.90
51853;DHT22;37894;53.172;6.598;2023-04-03T06:29:23;0.60;99.90
51853;DHT22;37894;53.172;6.598;2023-04-03T06:31:50;0.60;99.90
51853;DHT22;37894;53.172;6.598;2023-04-03T06:36:44;-0.10;99.90
51853;DHT22;37894;53.172;6.598;2023-04-03T06:39:19;0.80;99.90
51853;DHT22;37894;53.172;6.598;2023-04-03T06:41:48;1.10;99.90
51853;DHT22;37894;53.172;6.598;2023-04-03T06:44:14;1.50;99.90
51853;DHT22;37894;53.172;6.598;2023-04-03T06:46:42;1.80;99.90
51853;DHT22;37894;53.172;6.598;2023-04-03T06:49:08;1.00;99.90
51853;DHT22;37894;53.172;6.598;2023-04-03T06:56:28;1.30;99.90
51853;DHT22;37894;53.172;6.598;2023-04-03T06:58:54;1.40;99.90
51853;DHT22;37894;53.172;6.598;2023-04-03T07:01:22;1.90;99.90
51853;DHT22;37894;53.172;6.598;2023-04-03T07:03:48;1.30;99.90
51853;DHT22;37894;53.172;6.598;2023-04-03T07:06:16;1.60;99.90
51853;DHT22;37894;53.172;6.598;2023-04-03T07:08:42;1.50;99.90
51853;DHT22;37894;53.172;6.598;2023-04-03T07:11:09;3.00;99.90
51853;DHT22;37894;53.172;6.598;2023-04-03T07:13:36;1.70;99.90
51853;DHT22;37894;53.172;6.598;2023-04-03T07:16:02;1.40;99.90
51853;DHT22;37894;53.172;6.598;2023-04-03T07:18:30;2.00;99.90
51853;DHT22;37894;53.172;6.598;2023-04-03T07:20:57;1.50;99.90
51853;DHT22;37894;53.172;6.598;2023-04-03T07:25:49;2.10;99.90
51853;DHT22;37894;53.172;6.598;2023-04-03T07:28:17;2.30;99.90
51853;DHT22;37894;53.172;6.598;2023-04-03T07:30:52;3.50;99.90
51853;DHT22;37894;53.172;6.598;2023-04-03T07:33:20;3.20;99.90
51853;DHT22;37894;53.172;6.598;2023-04-03T07:35:46;3.60;99.90
51853;DHT22;37894;53.172;6.598;2023-04-03T07:38:13;1.80;99.90
51853;DHT22;37894;53.172;6.598;2023-04-03T07:40:39;2.60;99.90
51853;DHT22;37894;53.172;6.598;2023-04-03T07:43:06;2.30;99.90
51853;DHT22;37894;53.172;6.598;2023-04-03T07:45:34;3.00;99.90
51853;DHT22;37894;53.172;6.598;2023-04-03T07:50:26;3.30;99.90
51853;DHT22;37894;53.172;6.598;2023-04-03T07:52:52;3.10;99.90
51853;DHT22;37894;53.172;6.598;2023-04-03T08:00:12;3.60;99.90
51853;DHT22;37894;53.172;6.598;2023-04-03T08:05:05;4.00;99.90
51853;DHT22;37894;53.172;6.598;2023-04-03T08:07:31;4.10;99.90
51853;DHT22;37894;53.172;6.598;2023-04-03T08:09:56;3.70;99.90
51853;DHT22;37894;53.172;6.598;2023-04-03T08:12:22;4.00;99.90
51853;DHT22;37894;53.172;6.598;2023-04-03T08:17:14;4.10;99.90
51853;DHT22;37894;53.172;6.598;2023-04-03T08:19:40;4.40;99.90
51853;DHT22;37894;53.172;6.598;2023-04-03T08:22:06;5.20;99.90
51853;DHT22;37894;53.172;6.598;2023-04-03T08:24:33;4.40;99.90
51853;DHT22;37894;53.172;6.598;2023-04-03T08:26:59;4.30;99.90
51853;DHT22;37894;53.172;6.598;2023-04-03T08:29:25;3.80;99.90
51853;DHT22;37894;53.172;6.598;2023-04-03T08:31:51;4.70;99.90
51853;DHT22;37894;53.172;6.598;2023-04-03T08:34:17;4.70;99.90
51853;DHT22;37894;53.172;6.598;2023-04-03T08:39:10;4.20;99.90
51853;DHT22;37894;53.172;6.598;2023-04-03T08:41:41;6.30;99.90
51853;DHT22;37894;53.172;6.598;2023-04-03T08:47:24;5.10;99.90
51853;DHT22;37894;53.172;6.598;2023-04-03T08:52:40;4.40;99.90
51853;DHT22;37894;53.172;6.598;2023-04-03T08:55:28;5.30;99.90
51853;DHT22;37894;53.172;6.598;2023-04-03T08:58:12;5.50;99.90
51853;DHT22;37894;53.172;6.598;2023-04-03T09:01:10;5.00;99.90
51853;DHT22;37894;53.172;6.598;2023-04-03T09:03:36;5.60;99.90
51853;DHT22;37894;53.172;6.598;2023-04-03T09:06:22;5.90;99.90
51853;DHT22;37894;53.172;6.598;2023-04-03T09:11:25;6.10;99.90
51853;DHT22;37894;53.172;6.598;2023-04-03T09:17:21;6.70;99.90
51853;DHT22;37894;53.172;6.598;2023-04-03T09:19:55;6.40;99.90
51853;DHT22;37894;53.172;6.598;2023-04-03T09:22:28;6.40;99.90
51853;DHT22;37894;53.172;6.598;2023-04-03T09:25:17;6.30;99.90
51853;DHT22;37894;53.172;6.598;2023-04-03T09:27:44;6.40;99.90
51853;DHT22;37894;53.172;6.598;2023-04-03T09:30:14;6.70;99.90
51853;DHT22;37894;53.172;6.598;2023-04-03T09:37:50;6.10;99.90
51853;DHT22;37894;53.172;6.598;2023-04-03T09:42:56;7.20;99.90
51853;DHT22;37894;53.172;6.598;2023-04-03T09:48:08;7.20;98.00
51853;DHT22;37894;53.172;6.598;2023-04-03T09:50:35;8.10;99.10
51853;DHT22;37894;53.172;6.598;2023-04-03T09:55:56;7.90;97.10
51853;DHT22;37894;53.172;6.598;2023-04-03T09:58:31;7.70;98.50
51853;DHT22;37894;53.172;6.598;2023-04-03T10:01:00;7.50;99.20
51853;DHT22;37894;53.172;6.598;2023-04-03T10:03:31;8.20;98.80
51853;DHT22;37894;53.172;6.598;2023-04-03T10:05:58;7.90;95.70
51853;DHT22;37894;53.172;6.598;2023-04-03T10:08:28;8.60;99.10
51853;DHT22;37894;53.172;6.598;2023-04-03T10:11:16;7.70;98.30
51853;DHT22;37894;53.172;6.598;2023-04-03T10:14:02;8.10;98.60
51853;DHT22;37894;53.172;6.598;2023-04-03T10:16:38;8.00;94.90
51853;DHT22;37894;53.172;6.598;2023-04-03T10:19:51;8.10;94.10
51853;DHT22;37894;53.172;6.598;2023-04-03T10:27:59;8.40;95.10
51853;DHT22;37894;53.172;6.598;2023-04-03T10:30:47;8.30;91.90
51853;DHT22;37894;53.172;6.598;2023-04-03T10:52:22;9.00;85.30
51853;DHT22;37894;53.172;6.598;2023-04-03T10:55:09;9.20;88.60
51853;DHT22;37894;53.172;6.598;2023-04-03T10:57:36;9.40;90.70
51853;DHT22;37894;53.172;6.598;2023-04-03T11:00:17;9.30;90.10
51853;DHT22;37894;53.172;6.598;2023-04-03T11:02:52;9.30;79.30
51853;DHT22;37894;53.172;6.598;2023-04-03T11:05:50;9.40;80.10
51853;DHT22;37894;53.172;6.598;2023-04-03T11:11:22;9.40;76.70
51853;DHT22;37894;53.172;6.598;2023-04-03T11:14:05;9.50;84.30
51853;DHT22;37894;53.172;6.598;2023-04-03T11:16:40;9.50;76.30
51853;DHT22;37894;53.172;6.598;2023-04-03T11:24:40;9.80;75.20
51853;DHT22;37894;53.172;6.598;2023-04-03T11:27:15;10.00;80.90
51853;DHT22;37894;53.172;6.598;2023-04-03T11:29:45;10.10;85.20
51853;DHT22;37894;53.172;6.598;2023-04-03T11:32:25;10.20;80.10
51853;DHT22;37894;53.172;6.598;2023-04-03T11:34:54;11.10;76.50
51853;DHT22;37894;53.172;6.598;2023-04-03T11:37:45;10.20;77.60
51853;DHT22;37894;53.172;6.598;2023-04-03T11:42:49;10.20;77.20
51853;DHT22;37894;53.172;6.598;2023-04-03T11:55:43;10.80;75.00
51853;DHT22;37894;53.172;6.598;2023-04-03T11:58:17;11.30;75.10
51853;DHT22;37894;53.172;6.598;2023-04-03T12:01:10;11.20;72.90
51853;DHT22;37894;53.172;6.598;2023-04-03T12:14:04;11.20;70.30
51853;DHT22;37894;53.172;6.598;2023-04-03T12:35:27;12.20;65.70
51853;DHT22;37894;53.172;6.598;2023-04-03T12:46:50;12.80;67.10
51853;DHT22;37894;53.172;6.598;2023-04-03T12:49:39;13.30;64.00
51853;DHT22;37894;53.172;6.598;2023-04-03T12:52:33;13.40;63.90
51853;DHT22;37894;53.172;6.598;2023-04-03T12:55:01;13.40;63.50
51853;DHT22;37894;53.172;6.598;2023-04-03T12:57:30;13.50;64.60
51853;DHT22;37894;53.172;6.598;2023-04-03T12:59:56;13.50;63.20
51853;DHT22;37894;53.172;6.598;2023-04-03T13:02:29;13.80;62.00
51853;DHT22;37894;53.172;6.598;2023-04-03T13:04:58;12.70;62.40
51853;DHT22;37894;53.172;6.598;2023-04-03T13:07:33;13.00;60.70
51853;DHT22;37894;53.172;6.598;2023-04-03T13:10:18;13.40;61.90
51853;DHT22;37894;53.172;6.598;2023-04-03T13:12:59;13.90;61.30
51853;DHT22;37894;53.172;6.598;2023-04-03T13:15:42;14.00;58.80
51853;DHT22;37894;53.172;6.598;2023-04-03T13:20:55;14.30;60.20
51853;DHT22;37894;53.172;6.598;2023-04-03T13:23:23;14.70;63.70
51853;DHT22;37894;53.172;6.598;2023-04-03T13:25:49;15.10;63.70
51853;DHT22;37894;53.172;6.598;2023-04-03T13:28:20;15.50;63.60
51853;DHT22;37894;53.172;6.598;2023-04-03T13:31:07;15.70;61.50
51853;DHT22;37894;53.172;6.598;2023-04-03T13:33:36;15.80;56.50
51853;DHT22;37894;53.172;6.598;2023-04-03T13:36:18;16.00;59.90
51853;DHT22;37894;53.172;6.598;2023-04-03T13:38:45;16.30;59.20
51853;DHT22;37894;53.172;6.598;2023-04-03T13:43:50;15.40;53.60
51853;DHT22;37894;53.172;6.598;2023-04-03T13:48:47;15.70;59.80
51853;DHT22;37894;53.172;6.598;2023-04-03T13:53:49;15.30;56.10
51853;DHT22;37894;53.172;6.598;2023-04-03T13:56:34;14.70;56.50
51853;DHT22;37894;53.172;6.598;2023-04-03T13:59:20;13.80;54.70
51853;DHT22;37894;53.172;6.598;2023-04-03T14:04:26;15.20;55.70
51853;DHT22;37894;53.172;6.598;2023-04-03T14:06:53;15.50;57.20
51853;DHT22;37894;53.172;6.598;2023-04-03T14:09:20;16.00;57.50
51853;DHT22;37894;53.172;6.598;2023-04-03T14:11:47;16.20;57.60
51853;DHT22;37894;53.172;6.598;2023-04-03T14:14:20;16.50;56.50
51853;DHT22;37894;53.172;6.598;2023-04-03T14:16:50;16.60;57.00
51853;DHT22;37894;53.172;6.598;2023-04-03T14:19:22;16.30;56.90
51853;DHT22;37894;53.172;6.598;2023-04-03T14:21:49;15.60;57.60
51853;DHT22;37894;53.172;6.598;2023-04-03T14:24:16;14.00;63.10
51853;DHT22;37894;53.172;6.598;2023-04-03T14:26:43;13.30;65.50
51853;DHT22;37894;53.172;6.598;2023-04-03T14:29:10;12.50;67.10
51853;DHT22;37894;53.172;6.598;2023-04-03T14:38:56;10.80;68.90
51853;DHT22;37894;53.172;6.598;2023-04-03T14:41:24;10.70;69.10
51853;DHT22;37894;53.172;6.598;2023-04-03T14:43:50;10.90;62.60
51853;DHT22;37894;53.172;6.598;2023-04-03T14:46:37;10.80;70.50
51853;DHT22;37894;53.172;6.598;2023-04-03T14:49:11;11.10;71.20
51853;DHT22;37894;53.172;6.598;2023-04-03T14:54:05;10.30;71.00
51853;DHT22;37894;53.172;6.598;2023-04-03T14:56:36;10.50;63.70
51853;DHT22;37894;53.172;6.598;2023-04-03T14:59:02;9.50;71.10
51853;DHT22;37894;53.172;6.598;2023-04-03T15:04:05;10.00;70.40
51853;DHT22;37894;53.172;6.598;2023-04-03T15:09:23;9.80;64.00
51853;DHT22;37894;53.172;6.598;2023-04-03T15:11:50;9.90;72.40
51853;DHT22;37894;53.172;6.598;2023-04-03T15:14:17;9.60;72.70
51853;DHT22;37894;53.172;6.598;2023-04-03T15:19:10;9.70;72.90
51853;DHT22;37894;53.172;6.598;2023-04-03T15:21:36;9.50;68.90
51853;DHT22;37894;53.172;6.598;2023-04-03T15:24:02;10.60;74.70
51853;DHT22;37894;53.172;6.598;2023-04-03T15:26:28;9.70;74.10
51853;DHT22;37894;53.172;6.598;2023-04-03T15:36:12;9.40;73.30
51853;DHT22;37894;53.172;6.598;2023-04-03T15:41:04;9.20;73.60
51853;DHT22;37894;53.172;6.598;2023-04-03T15:45:59;9.10;65.30
51853;DHT22;37894;53.172;6.598;2023-04-03T15:48:26;9.10;74.30
51853;DHT22;37894;53.172;6.598;2023-04-03T15:50:53;9.30;74.20
51853;DHT22;37894;53.172;6.598;2023-04-03T15:55:44;8.70;68.20
51853;DHT22;37894;53.172;6.598;2023-04-03T15:58:10;9.20;74.30
51853;DHT22;37894;53.172;6.598;2023-04-03T16:03:09;9.30;65.80
51853;DHT22;37894;53.172;6.598;2023-04-03T16:05:37;8.90;65.90
51853;DHT22;37894;53.172;6.598;2023-04-03T16:08:04;7.90;72.50
51853;DHT22;37894;53.172;6.598;2023-04-03T16:10:30;8.90;69.60
51853;DHT22;37894;53.172;6.598;2023-04-03T16:12:56;8.80;75.40
51853;DHT22;37894;53.172;6.598;2023-04-03T16:15:22;8.60;75.90
51853;DHT22;37894;53.172;6.598;2023-04-03T16:17:50;8.80;76.50
51853;DHT22;37894;53.172;6.598;2023-04-03T16:22:43;8.70;76.00
51853;DHT22;37894;53.172;6.598;2023-04-03T16:25:10;8.20;76.20
51853;DHT22;37894;53.172;6.598;2023-04-03T16:27:36;8.80;76.30
51853;DHT22;37894;53.172;6.598;2023-04-03T16:30:02;8.20;76.10
51853;DHT22;37894;53.172;6.598;2023-04-03T16:32:30;8.30;67.70
51853;DHT22;37894;53.172;6.598;2023-04-03T16:34:57;8.50;69.00
51853;DHT22;37894;53.172;6.598;2023-04-03T16:37:23;8.60;76.20
51853;DHT22;37894;53.172;6.598;2023-04-03T16:39:49;8.40;76.70
51853;DHT22;37894;53.172;6.598;2023-04-03T16:42:14;8.40;77.30
51853;DHT22;37894;53.172;6.598;2023-04-03T16:44:41;8.20;77.70
51853;DHT22;37894;53.172;6.598;2023-04-03T16:49:33;7.40;78.00
51853;DHT22;37894;53.172;6.598;2023-04-03T16:52:01;8.30;79.60
51853;DHT22;37894;53.172;6.598;2023-04-03T16:54:28;7.80;80.40
51853;DHT22;37894;53.172;6.598;2023-04-03T16:56:54;8.90;82.90
51853;DHT22;37894;53.172;6.598;2023-04-03T16:59:20;8.00;83.00
51853;DHT22;37894;53.172;6.598;2023-04-03T17:04:11;7.60;77.10
51853;DHT22;37894;53.172;6.598;2023-04-03T17:06:39;6.90;84.70
51853;DHT22;37894;53.172;6.598;2023-04-03T17:09:05;7.70;85.50
51853;DHT22;37894;53.172;6.598;2023-04-03T17:11:31;8.00;86.40
51853;DHT22;37894;53.172;6.598;2023-04-03T17:13:57;7.60;81.20
51853;DHT22;37894;53.172;6.598;2023-04-03T17:16:24;7.30;78.90
51853;DHT22;37894;53.172;6.598;2023-04-03T17:18:52;7.50;88.90
51853;DHT22;37894;53.172;6.598;2023-04-03T17:21:18;7.40;88.70
51853;DHT22;37894;53.172;6.598;2023-04-03T17:23:47;8.20;90.10
51853;DHT22;37894;53.172;6.598;2023-04-03T17:26:14;6.20;89.70
51853;DHT22;37894;53.172;6.598;2023-04-03T17:28:40;7.20;90.30
51853;DHT22;37894;53.172;6.598;2023-04-03T17:31:07;6.90;81.80
51853;DHT22;37894;53.172;6.598;2023-04-03T17:33:33;7.70;91.00
51853;DHT22;37894;53.172;6.598;2023-04-03T17:36:00;6.80;91.10
51853;DHT22;37894;53.172;6.598;2023-04-03T17:40:58;6.70;92.10
51853;DHT22;37894;53.172;6.598;2023-04-03T17:43:24;6.60;92.20
51853;DHT22;37894;53.172;6.598;2023-04-03T17:50:42;6.40;93.40
51853;DHT22;37894;53.172;6.598;2023-04-03T17:53:08;6.30;93.50
51853;DHT22;37894;53.172;6.598;2023-04-03T17:55:39;6.60;88.80
51853;DHT22;37894;53.172;6.598;2023-04-03T17:58:05;6.30;88.80
51853;DHT22;37894;53.172;6.598;2023-04-03T18:00:31;6.30;93.40
51853;DHT22;37894;53.172;6.598;2023-04-03T18:02:57;5.70;94.70
51853;DHT22;37894;53.172;6.598;2023-04-03T18:05:29;5.40;90.30
51853;DHT22;37894;53.172;6.598;2023-04-03T18:07:57;6.10;95.80
51853;DHT22;37894;53.172;6.598;2023-04-03T18:10:24;5.90;92.40
51853;DHT22;37894;53.172;6.598;2023-04-03T18:12:51;6.00;91.60
51853;DHT22;37894;53.172;6.598;2023-04-03T18:15:18;5.90;91.80
51853;DHT22;37894;53.172;6.598;2023-04-03T18:17:44;5.80;96.70
51853;DHT22;37894;53.172;6.598;2023-04-03T18:20:11;5.50;97.80
51853;DHT22;37894;53.172;6.598;2023-04-03T18:22:39;5.90;96.30
51853;DHT22;37894;53.172;6.598;2023-04-03T18:25:06;5.90;98.80
51853;DHT22;37894;53.172;6.598;2023-04-03T18:27:32;5.10;97.20
51853;DHT22;37894;53.172;6.598;2023-04-03T18:30:06;5.20;99.60
51853;DHT22;37894;53.172;6.598;2023-04-03T18:34:59;6.40;99.70
51853;DHT22;37894;53.172;6.598;2023-04-03T18:39:52;5.50;99.90
51853;DHT22;37894;53.172;6.598;2023-04-03T18:42:21;5.00;99.90
51853;DHT22;37894;53.172;6.598;2023-04-03T18:44:51;5.10;99.90
51853;DHT22;37894;53.172;6.598;2023-04-03T18:47:17;5.30;99.90
51853;DHT22;37894;53.172;6.598;2023-04-03T18:49:43;4.90;99.90
51853;DHT22;37894;53.172;6.598;2023-04-03T18:52:10;5.20;99.90
51853;DHT22;37894;53.172;6.598;2023-04-03T18:59:29;5.00;99.90
51853;DHT22;37894;53.172;6.598;2023-04-03T19:04:22;5.60;99.90
51853;DHT22;37894;53.172;6.598;2023-04-03T19:06:48;4.30;99.90
51853;DHT22;37894;53.172;6.598;2023-04-03T19:09:14;4.40;99.90
51853;DHT22;37894;53.172;6.598;2023-04-03T19:11:40;4.80;99.90
51853;DHT22;37894;53.172;6.598;2023-04-03T19:14:06;5.20;99.90
51853;DHT22;37894;53.172;6.598;2023-04-03T19:16:32;4.00;99.90
51853;DHT22;37894;53.172;6.598;2023-04-03T19:18:58;4.50;99.90
51853;DHT22;37894;53.172;6.598;2023-04-03T19:21:24;4.40;99.90
51853;DHT22;37894;53.172;6.598;2023-04-03T19:26:17;4.90;99.90
51853;DHT22;37894;53.172;6.598;2023-04-03T19:28:43;3.80;99.90
51853;DHT22;37894;53.172;6.598;2023-04-03T19:31:16;3.80;99.90
51853;DHT22;37894;53.172;6.598;2023-04-03T19:33:43;5.40;99.90
51853;DHT22;37894;53.172;6.598;2023-04-03T19:36:09;4.40;99.90
51853;DHT22;37894;53.172;6.598;2023-04-03T19:38:36;3.90;99.90
51853;DHT22;37894;53.172;6.598;2023-04-03T19:41:07;4.30;99.90
51853;DHT22;37894;53.172;6.598;2023-04-03T19:43:33;4.50;99.90
51853;DHT22;37894;53.172;6.598;2023-04-03T19:45:59;4.30;99.90
51853;DHT22;37894;53.172;6.598;2023-04-03T19:48:25;4.30;99.90
51853;DHT22;37894;53.172;6.598;2023-04-03T19:50:50;4.40;99.90
51853;DHT22;37894;53.172;6.598;2023-04-03T19:53:16;5.10;99.90
51853;DHT22;37894;53.172;6.598;2023-04-03T19:55:47;4.00;99.90
51853;DHT22;37894;53.172;6.598;2023-04-03T19:58:13;4.20;99.90
51853;DHT22;37894;53.172;6.598;2023-04-03T20:00:39;4.30;99.90
51853;DHT22;37894;53.172;6.598;2023-04-03T20:03:05;3.80;99.90
51853;DHT22;37894;53.172;6.598;2023-04-03T20:10:23;4.40;99.90
51853;DHT22;37894;53.172;6.598;2023-04-03T20:17:43;4.80;99.90
51853;DHT22;37894;53.172;6.598;2023-04-03T20:20:09;3.10;99.90
51853;DHT22;37894;53.172;6.598;2023-04-03T20:22:37;4.00;99.90
51853;DHT22;37894;53.172;6.598;2023-04-03T20:25:09;3.80;99.90
51853;DHT22;37894;53.172;6.598;2023-04-03T20:27:36;4.30;99.90
51853;DHT22;37894;53.172;6.598;2023-04-03T20:30:03;3.10;99.90
51853;DHT22;37894;53.172;6.598;2023-04-03T20:32:30;3.90;99.90
51853;DHT22;37894;53.172;6.598;2023-04-03T20:37:22;3.90;99.90
51853;DHT22;37894;53.172;6.598;2023-04-03T20:39:48;2.70;99.90
51853;DHT22;37894;53.172;6.598;2023-04-03T20:42:14;3.60;99.90
51853;DHT22;37894;53.172;6.598;2023-04-03T20:44:40;3.70;99.90
51853;DHT22;37894;53.172;6.598;2023-04-03T20:47:11;3.70;99.90
51853;DHT22;37894;53.172;6.598;2023-04-03T20:49:37;3.70;99.90
51853;DHT22;37894;53.172;6.598;2023-04-03T20:54:30;4.40;99.90
51853;DHT22;37894;53.172;6.598;2023-04-03T20:56:55;3.70;99.90
51853;DHT22;37894;53.172;6.598;2023-04-03T21:01:48;3.50;99.90
51853;DHT22;37894;53.172;6.598;2023-04-03T21:04:23;3.70;99.90
51853;DHT22;37894;53.172;6.598;2023-04-03T21:19:13;3.20;99.90
51853;DHT22;37894;53.172;6.598;2023-04-03T21:21:24;3.10;99.90
51853;DHT22;37894;53.172;6.598;2023-04-03T21:23:51;3.50;99.90
51853;DHT22;37894;53.172;6.598;2023-04-03T21:26:19;3.00;99.90
51853;DHT22;37894;53.172;6.598;2023-04-03T21:28:49;2.60;99.90
51853;DHT22;37894;53.172;6.598;2023-04-03T21:31:15;2.90;99.90
51853;DHT22;37894;53.172;6.598;2023-04-03T21:36:10;2.80;99.90
51853;DHT22;37894;53.172;6.598;2023-04-03T21:38:36;2.50;99.90
51853;DHT22;37894;53.172;6.598;2023-04-03T21:43:28;2.70;99.90
51853;DHT22;37894;53.172;6.598;2023-04-03T21:45:55;2.40;99.90
51853;DHT22;37894;53.172;6.598;2023-04-03T21:48:22;2.30;99.90
51853;DHT22;37894;53.172;6.598;2023-04-03T21:53:21;2.50;99.90
51853;DHT22;37894;53.172;6.598;2023-04-03T21:55:56;2.00;99.90
51853;DHT22;37894;53.172;6.598;2023-04-03T21:58:31;2.30;99.90
51853;DHT22;37894;53.172;6.598;2023-04-03T22:01:07;2.20;99.90
51853;DHT22;37894;53.172;6.598;2023-04-03T22:03:34;2.10;99.90
51853;DHT22;37894;53.172;6.598;2023-04-03T22:05:59;2.10;99.90
51853;DHT22;37894;53.172;6.598;2023-04-03T22:13:18;2.10;99.90
51853;DHT22;37894;53.172;6.598;2023-04-03T22:15:47;2.00;99.90
51853;DHT22;37894;53.172;6.598;2023-04-03T22:18:12;2.90;99.90
51853;DHT22;37894;53.172;6.598;2023-04-03T22:20:41;2.20;99.90
51853;DHT22;37894;53.172;6.598;2023-04-03T22:25:33;1.90;99.90